Time;durP1;ratioP1;P1;durP2;ratioP2;P2;SDS_P1;SDS_P2;PMS_P1;PMS_P2;Temp;Humidity;BMP_temperature;BMP_pressure;BME280_temperature;BME280_humidity;BME280_pressure;Samples;Min_cycle;Max_cycle;Signal;HPM_P1;HPM_P2
2022/03/09 00:00:14;;;;;;;2.37;2.13;;;15.40;43.20;16.40;101406.00;;;;5037765;28;20694;-47
2022/03/09 00:02:39;;;;;;;2.50;2.30;;;15.50;43.30;16.40;101393.00;;;;5034310;28;20229;-46
2022/03/09 00:05:06;;;;;;;2.27;2.10;;;15.40;43.20;16.40;101397.00;;;;5033036;28;20199;-47
2022/03/09 00:07:31;;;;;;;2.10;2.00;;;15.40;43.30;16.40;101397.00;;;;5031940;28;20253;-46
2022/03/09 00:09:57;;;;;;;2.30;2.10;;;15.40;43.30;16.40;101386.00;;;;5033714;28;20178;-46
2022/03/09 00:12:23;;;;;;;2.03;1.93;;;15.40;43.30;16.30;101406.00;;;;5032729;28;20179;-47
2022/03/09 00:14:48;;;;;;;2.30;2.10;;;15.40;43.30;16.30;101413.00;;;;5032617;28;20217;-46
2022/03/09 00:17:14;;;;;;;2.40;2.10;;;15.40;43.30;16.30;101405.00;;;;5031789;28;20183;-47
2022/03/09 00:19:40;;;;;;;2.30;2.10;;;15.40;43.30;16.30;101418.00;;;;5032828;28;20249;-47
2022/03/09 00:22:05;;;;;;;2.20;2.00;;;15.40;43.30;16.30;101419.00;;;;5032535;28;20179;-47
2022/03/09 00:24:32;;;;;;;2.30;2.10;;;15.30;43.30;16.30;101411.00;;;;5033495;28;20197;-45
2022/03/09 00:26:59;;;;;;;2.23;2.10;;;15.30;43.30;16.30;101422.00;;;;5032927;28;20234;-46
2022/03/09 00:29:25;;;;;;;2.20;2.00;;;15.30;43.30;16.30;101429.00;;;;5032753;28;20171;-48
2022/03/09 00:31:51;;;;;;;2.20;2.00;;;15.20;43.20;16.20;101435.00;;;;5032000;28;20171;-49
2022/03/09 00:34:17;;;;;;;2.30;2.10;;;15.20;43.20;16.20;101431.00;;;;5032596;28;20264;-46
2022/03/09 00:36:43;;;;;;;2.30;2.10;;;15.20;43.20;16.20;101419.00;;;;5032783;28;20550;-45
2022/03/09 00:39:09;;;;;;;2.23;2.03;;;15.20;43.30;16.20;101426.00;;;;5032688;28;20175;-47
2022/03/09 00:41:35;;;;;;;2.23;2.03;;;15.20;43.30;16.20;101430.00;;;;5032612;28;20179;-46
2022/03/09 00:44:01;;;;;;;2.73;2.30;;;15.20;43.30;16.20;101433.00;;;;5032654;28;20282;-45
2022/03/09 00:46:26;;;;;;;2.27;2.07;;;15.20;43.20;16.10;101440.00;;;;5032421;28;20592;-46
2022/03/09 00:48:52;;;;;;;2.23;2.10;;;15.20;43.30;16.10;101438.00;;;;5031914;28;20175;-45
2022/03/09 00:51:18;;;;;;;2.13;2.00;;;15.10;43.20;16.10;101444.00;;;;5032072;28;20250;-46
2022/03/09 00:53:43;;;;;;;2.20;2.00;;;15.10;43.20;16.10;101447.00;;;;5032007;28;20195;-47
2022/03/09 00:56:09;;;;;;;2.17;1.97;;;15.10;43.20;16.10;101442.00;;;;5031904;28;20171;-47
2022/03/09 00:58:35;;;;;;;2.40;2.20;;;15.10;43.20;16.00;101310.00;;;;5031743;28;20190;-47
2022/03/09 01:01:01;;;;;;;1.97;1.87;;;15.10;43.20;16.00;101452.00;;;;5035562;28;20167;-45
2022/03/09 01:03:26;;;;;;;2.00;1.90;;;15.10;43.20;16.00;101444.00;;;;5033611;28;20657;-47
2022/03/09 01:05:52;;;;;;;1.90;1.80;;;15.00;43.10;16.00;101442.00;;;;5032880;28;20698;-47
2022/03/09 01:08:18;;;;;;;2.23;2.10;;;15.10;43.20;16.00;101447.00;;;;5033329;28;20195;-45
2022/03/09 01:10:43;;;;;;;2.30;2.10;;;15.00;43.20;16.00;101445.00;;;;5032509;28;20175;-47
2022/03/09 01:13:09;;;;;;;2.20;2.00;;;15.00;43.30;16.00;101440.00;;;;5033620;28;20174;-46
2022/03/09 01:15:35;;;;;;;2.30;2.10;;;15.00;43.20;16.00;101445.00;;;;5033605;28;20187;-46
2022/03/09 01:18:00;;;;;;;2.33;2.13;;;14.90;43.20;16.00;101445.00;;;;5031015;28;20557;-46
2022/03/09 01:20:26;;;;;;;2.53;2.10;;;15.00;43.30;16.00;101441.00;;;;5032406;28;20245;-46
2022/03/09 01:22:54;;;;;;;2.23;2.03;;;14.90;43.20;16.00;101448.00;;;;5032108;28;20179;-47
2022/03/09 01:25:20;;;;;;;2.20;2.00;;;15.00;43.30;16.00;101430.00;;;;5032692;28;20201;-47
2022/03/09 01:27:46;;;;;;;2.17;2.00;;;14.90;43.20;16.00;101438.00;;;;5032862;28;20555;-46
2022/03/09 01:30:12;;;;;;;2.27;2.07;;;14.90;43.20;16.00;101430.00;;;;5032191;28;20171;-47
2022/03/09 01:32:37;;;;;;;2.37;2.17;;;14.90;43.20;16.00;101434.00;;;;5032922;28;20652;-47
2022/03/09 01:35:04;;;;;;;2.50;2.13;;;14.90;43.20;16.00;101429.00;;;;5031844;28;20202;-45
2022/03/09 01:37:29;;;;;;;2.17;1.97;;;14.90;43.20;16.00;101435.00;;;;5031200;28;20221;-47
2022/03/09 01:39:55;;;;;;;2.20;2.00;;;14.90;43.20;15.80;101429.00;;;;5042766;28;20357;-47
2022/03/09 01:42:21;;;;;;;2.10;2.00;;;14.90;43.20;16.00;101430.00;;;;5032666;28;20182;-46
2022/03/09 01:44:47;;;;;;;2.30;2.10;;;14.80;43.20;16.00;101420.00;;;;5030342;28;20582;-47
2022/03/09 01:47:13;;;;;;;2.20;2.00;;;14.80;43.10;15.90;101409.00;;;;5031220;28;20199;-46
2022/03/09 01:49:39;;;;;;;2.10;2.00;;;14.80;43.10;15.90;101422.00;;;;5031487;28;20178;-46
2022/03/09 01:52:05;;;;;;;2.30;2.10;;;14.80;43.10;15.90;101413.00;;;;5031809;28;20167;-45
2022/03/09 01:54:30;;;;;;;2.27;2.07;;;14.80;43.10;15.90;101417.00;;;;5031326;28;20194;-46
2022/03/09 01:56:58;;;;;;;2.50;2.30;;;14.80;43.10;15.90;101409.00;;;;5031476;28;20179;-46
2022/03/09 01:59:23;;;;;;;1.83;1.73;;;14.80;43.10;15.90;101410.00;;;;5030833;28;20175;-46
2022/03/09 02:01:49;;;;;;;2.30;2.10;;;14.70;43.00;15.90;101401.00;;;;5031670;28;20620;-47
2022/03/09 02:04:16;;;;;;;2.50;2.30;;;14.70;43.00;15.90;101404.00;;;;5031295;28;20333;-45
2022/03/09 02:06:43;;;;;;;2.37;2.10;;;14.70;43.00;15.90;101405.00;;;;5030354;28;20191;-49
2022/03/09 02:11:53;;;;;;;2.40;2.20;;;14.70;43.00;15.80;101399.00;;;;5031557;28;20190;-46
2022/03/09 02:14:26;;;;;;;2.13;2.00;;;14.70;43.00;15.80;101407.00;;;;5031974;28;20211;-46
2022/03/09 02:16:51;;;;;;;2.23;2.07;;;14.70;43.00;15.80;101407.00;;;;5042439;28;20179;-46
2022/03/09 02:19:17;;;;;;;2.10;2.00;;;14.70;43.00;15.80;101405.00;;;;5036348;28;20170;-46
2022/03/09 02:21:43;;;;;;;2.10;2.00;;;14.70;43.60;15.80;101408.00;;;;5035447;28;20175;-46
2022/03/09 02:24:08;;;;;;;2.23;2.03;;;14.60;43.00;15.70;101403.00;;;;5018316;28;20210;-47
2022/03/09 02:26:34;;;;;;;2.30;2.10;;;14.70;43.10;15.70;101406.00;;;;5018286;28;20195;-46
2022/03/09 02:29:00;;;;;;;2.27;2.10;;;14.60;43.00;15.70;101411.00;;;;5033790;28;20174;-46
2022/03/09 02:31:26;;;;;;;2.30;2.10;;;14.60;43.00;15.70;101415.00;;;;5035581;28;20215;-47
2022/03/09 02:33:51;;;;;;;2.33;2.13;;;14.60;43.10;15.70;101361.00;;;;5034446;28;20191;-47
2022/03/09 02:36:20;;;;;;;2.23;2.03;;;14.50;43.00;15.70;101414.00;;;;5035593;28;20182;-47
2022/03/09 02:38:45;;;;;;;2.10;2.00;;;14.60;43.00;15.70;101416.00;;;;5034918;28;20325;-47
2022/03/09 02:41:11;;;;;;;2.20;2.00;;;14.50;43.00;15.60;101417.00;;;;5035265;28;20848;-48
2022/03/09 02:43:37;;;;;;;2.23;2.03;;;14.50;43.00;15.60;101416.00;;;;5034743;28;20182;-46
2022/03/09 02:46:03;;;;;;;2.30;2.10;;;14.50;43.00;15.60;101421.00;;;;5034862;28;20174;-48
2022/03/09 02:48:28;;;;;;;2.43;2.23;;;14.50;43.00;15.60;101344.00;;;;5035345;28;20198;-45
2022/03/09 02:50:54;;;;;;;2.17;2.00;;;14.50;43.00;15.50;101411.00;;;;5035114;28;20171;-46
2022/03/09 02:53:20;;;;;;;2.40;2.20;;;14.50;43.00;15.50;101412.00;;;;5039139;28;20393;-46
2022/03/09 02:55:45;;;;;;;1.90;1.80;;;14.40;42.90;15.50;101406.00;;;;5034434;28;20187;-47
2022/03/09 02:58:11;;;;;;;2.30;2.10;;;14.50;43.10;15.50;101407.00;;;;5034356;28;20187;-47
2022/03/09 03:00:37;;;;;;;2.57;2.00;;;14.40;43.00;15.50;101402.00;;;;5034211;28;20174;-47
2022/03/09 03:03:02;;;;;;;2.40;2.20;;;14.40;43.00;15.50;101406.00;;;;5035018;28;20187;-46
2022/03/09 03:05:28;;;;;;;2.20;2.00;;;14.40;43.00;15.50;101333.00;;;;5034551;28;20722;-47
2022/03/09 03:07:54;;;;;;;2.33;2.20;;;14.40;43.00;15.40;101414.00;;;;5037569;28;20198;-46
2022/03/09 03:10:20;;;;;;;2.50;2.30;;;14.40;43.20;15.40;101407.00;;;;5037332;28;20171;-46
2022/03/09 03:12:45;;;;;;;2.17;2.03;;;14.30;43.00;15.40;101403.00;;;;5035232;28;20175;-46
2022/03/09 03:15:11;;;;;;;2.00;1.90;;;14.40;43.10;15.40;101405.00;;;;5033775;28;20261;-49
2022/03/09 03:17:37;;;;;;;2.10;2.00;;;14.30;43.00;15.40;101405.00;;;;5035235;28;20548;-46
2022/03/09 03:20:05;;;;;;;3.17;2.20;;;14.40;43.10;15.40;101412.00;;;;5044370;28;20175;-47
2022/03/09 03:22:30;;;;;;;2.17;2.00;;;14.30;43.00;15.40;101330.00;;;;5034524;28;20179;-47
2022/03/09 03:24:56;;;;;;;2.40;2.20;;;14.30;42.90;15.40;101397.00;;;;5034775;28;20337;-46
2022/03/09 03:27:22;;;;;;;2.23;2.03;;;14.30;43.00;15.40;101398.00;;;;5033985;28;20495;-46
2022/03/09 03:29:47;;;;;;;2.17;2.00;;;14.30;43.00;15.40;101398.00;;;;5041326;28;20171;-47
2022/03/09 03:32:13;;;;;;;2.30;2.10;;;14.30;43.00;15.40;101405.00;;;;5033491;28;20182;-46
2022/03/09 03:34:39;;;;;;;2.90;2.10;;;14.30;43.00;15.40;101396.00;;;;5033706;28;20213;-45
2022/03/09 03:37:05;;;;;;;2.53;2.27;;;14.30;43.10;15.30;101393.00;;;;5033869;28;20175;-48
2022/03/09 03:39:30;;;;;;;2.40;2.20;;;14.20;43.10;15.30;101392.00;;;;5033564;28;20175;-45
2022/03/09 03:41:56;;;;;;;2.40;2.20;;;14.20;43.10;15.30;101401.00;;;;5033613;28;20183;-46
2022/03/09 03:44:22;;;;;;;2.50;2.30;;;14.20;43.20;15.30;101401.00;;;;5033923;28;20568;-48
2022/03/09 03:46:47;;;;;;;2.30;2.10;;;14.20;43.00;15.30;101400.00;;;;5034222;28;20202;-47
2022/03/09 03:49:13;;;;;;;2.40;2.20;;;14.10;43.00;15.20;101386.00;;;;5033257;28;20182;-47
2022/03/09 03:51:39;;;;;;;2.10;2.00;;;14.20;42.90;15.20;101396.00;;;;5032913;28;20206;-47
2022/03/09 03:54:04;;;;;;;2.30;2.10;;;14.20;42.90;15.20;101399.00;;;;5030946;28;20190;-46
2022/03/09 03:56:30;;;;;;;2.47;2.27;;;14.10;42.90;15.20;101400.00;;;;5034287;28;20179;-46
2022/03/09 03:58:56;;;;;;;2.30;2.10;;;14.10;42.90;15.20;101401.00;;;;5035983;28;20159;-46
2022/03/09 04:01:21;;;;;;;2.43;2.23;;;14.10;42.90;15.10;101407.00;;;;5033479;28;20718;-46
2022/03/09 04:03:47;;;;;;;1.90;1.80;;;14.10;42.90;15.10;101395.00;;;;5034943;28;20191;-46
2022/03/09 04:06:13;;;;;;;2.10;1.90;;;14.10;42.90;15.10;101390.00;;;;5034986;28;20175;-46
2022/03/09 04:08:38;;;;;;;1.93;1.83;;;14.10;42.90;15.10;101401.00;;;;5034144;28;20229;-45
2022/03/09 04:11:04;;;;;;;2.47;2.20;;;14.10;42.80;15.10;101394.00;;;;5026096;28;20188;-46
2022/03/09 04:13:30;;;;;;;2.30;2.10;;;14.00;42.80;15.10;101389.00;;;;5024200;28;20885;-46
2022/03/09 04:15:56;;;;;;;2.47;2.27;;;14.10;42.80;15.00;101390.00;;;;5032877;28;20708;-46
2022/03/09 04:18:21;;;;;;;2.50;2.30;;;14.00;42.90;15.00;101384.00;;;;5034453;28;20171;-46
2022/03/09 04:20:47;;;;;;;2.60;2.40;;;14.00;42.90;15.00;101395.00;;;;5033201;28;20159;-46
2022/03/09 04:23:13;;;;;;;2.00;1.90;;;14.00;43.00;15.00;101387.00;;;;5034917;28;20202;-48
2022/03/09 04:25:38;;;;;;;2.40;2.20;;;14.00;43.00;15.00;101396.00;;;;5033983;28;20191;-47
2022/03/09 04:28:04;;;;;;;2.50;2.30;;;14.00;42.90;15.00;101395.00;;;;5033800;28;20205;-47
2022/03/09 04:30:30;;;;;;;2.63;2.20;;;14.00;43.10;14.90;101391.00;;;;5032469;28;20250;-46
2022/03/09 04:32:56;;;;;;;3.00;2.40;;;14.00;43.20;14.90;101395.00;;;;5033535;28;20654;-46
2022/03/09 04:35:22;;;;;;;2.53;2.10;;;13.90;43.10;14.90;101397.00;;;;5033442;28;20792;-46
2022/03/09 04:37:47;;;;;;;2.50;2.30;;;13.90;43.00;14.90;101389.00;;;;5034772;28;20221;-46
2022/03/09 04:40:13;;;;;;;3.03;2.10;;;13.90;43.00;14.90;101394.00;;;;5035329;28;20168;-45
2022/03/09 04:42:39;;;;;;;2.33;2.10;;;13.90;42.70;14.90;101394.00;;;;5036006;28;20684;-46
2022/03/09 04:45:05;;;;;;;3.77;2.20;;;13.90;42.70;14.90;101398.00;;;;5034571;28;20197;-46
2022/03/09 04:47:31;;;;;;;3.10;2.13;;;13.90;42.80;14.90;101398.00;;;;5032833;28;20208;-47
2022/03/09 04:49:57;;;;;;;3.23;2.40;;;13.80;42.60;14.90;101407.00;;;;5034467;28;20175;-45
2022/03/09 04:52:22;;;;;;;4.30;2.30;;;13.80;42.60;14.90;101402.00;;;;5034182;28;20176;-46
2022/03/09 04:54:48;;;;;;;2.33;2.10;;;13.80;42.60;14.90;101397.00;;;;5032447;28;20504;-45
2022/03/09 04:57:14;;;;;;;2.40;1.90;;;13.80;42.40;14.90;101400.00;;;;5034259;28;20179;-46
2022/03/09 04:59:46;;;;;;;2.43;2.13;;;13.80;42.50;14.90;101391.00;;;;5111419;27;20621;-47
2022/03/09 05:02:12;;;;;;;2.30;2.10;;;13.80;42.40;14.90;101389.00;;;;5088859;28;20172;-46
2022/03/09 05:04:38;;;;;;;3.10;2.27;;;13.80;42.30;14.90;101379.00;;;;5101473;28;20192;-48
2022/03/09 05:07:04;;;;;;;3.20;2.43;;;13.70;42.20;14.90;101387.00;;;;5090927;28;20188;-46
2022/03/09 05:09:29;;;;;;;3.40;2.30;;;13.70;42.20;14.80;101392.00;;;;5090199;28;20180;-47
2022/03/09 05:11:55;;;;;;;2.50;2.30;;;13.70;42.10;14.80;101397.00;;;;5091301;28;20169;-46
2022/03/09 05:14:21;;;;;;;2.30;2.10;;;13.70;42.20;14.80;101396.00;;;;5090600;28;20712;-47
2022/03/09 05:16:47;;;;;;;2.40;2.20;;;13.70;42.10;14.80;101389.00;;;;5076155;28;20550;-48
2022/03/09 05:19:13;;;;;;;2.50;2.30;;;13.70;42.20;14.80;101402.00;;;;5070176;28;20194;-46
2022/03/09 05:21:39;;;;;;;2.80;2.27;;;13.60;42.10;14.80;101402.00;;;;5072089;28;20177;-46
2022/03/09 05:24:05;;;;;;;2.73;2.33;;;13.60;42.20;14.50;101401.00;;;;5071310;28;20189;-46
2022/03/09 05:26:31;;;;;;;2.27;2.07;;;13.70;42.30;14.80;101418.00;;;;5071505;28;20162;-47
2022/03/09 05:28:57;;;;;;;2.87;2.50;;;13.70;42.30;14.80;101419.00;;;;5070096;28;20173;-48
2022/03/09 05:31:23;;;;;;;2.50;2.30;;;13.70;42.10;14.80;101419.00;;;;5072516;28;20234;-46
2022/03/09 05:33:49;;;;;;;2.50;2.30;;;13.60;42.10;14.80;101420.00;;;;5071645;28;20198;-46
2022/03/09 05:36:15;;;;;;;2.50;2.30;;;13.60;42.10;14.70;101418.00;;;;5070415;28;20174;-46
2022/03/09 05:38:41;;;;;;;3.40;2.60;;;13.60;42.00;14.70;101412.00;;;;5068870;28;20697;-47
2022/03/09 05:41:06;;;;;;;2.87;2.53;;;13.60;41.90;14.70;101414.00;;;;5069863;28;20178;-47
2022/03/09 05:43:32;;;;;;;2.90;2.60;;;13.60;41.90;14.70;101307.00;;;;5069533;28;20173;-47
2022/03/09 05:45:58;;;;;;;3.00;2.70;;;13.60;41.80;14.70;101411.00;;;;5070055;28;20166;-47
2022/03/09 05:48:24;;;;;;;3.47;2.50;;;13.60;41.70;14.70;101419.00;;;;5070033;28;20653;-47
2022/03/09 05:50:49;;;;;;;3.10;2.80;;;13.50;41.60;14.70;101423.00;;;;5066531;28;20360;-46
2022/03/09 05:53:15;;;;;;;4.33;2.80;;;13.50;41.70;14.70;101424.00;;;;5067326;28;20185;-46
2022/03/09 05:55:41;;;;;;;3.93;2.77;;;13.50;41.70;14.70;101418.00;;;;5073509;28;20197;-47
2022/03/09 05:58:06;;;;;;;4.30;2.60;;;13.50;41.70;14.70;101427.00;;;;5070280;28;20461;-46
2022/03/09 06:00:32;;;;;;;3.00;2.70;;;13.50;41.60;14.60;101439.00;;;;5070216;28;20170;-47
2022/03/09 06:02:58;;;;;;;4.27;2.90;;;13.50;41.70;14.60;101441.00;;;;5070314;28;20162;-45
2022/03/09 06:05:23;;;;;;;3.57;2.70;;;13.50;41.40;14.60;101438.00;;;;5070579;28;20177;-45
2022/03/09 06:07:49;;;;;;;3.80;2.77;;;13.50;41.70;14.60;101439.00;;;;5069931;28;20185;-51
2022/03/09 06:10:15;;;;;;;3.03;2.70;;;13.50;41.70;14.60;101439.00;;;;5059695;28;20178;-47
2022/03/09 06:12:41;;;;;;;2.90;2.70;;;13.50;41.60;14.60;101441.00;;;;5059516;28;20223;-47
2022/03/09 06:15:07;;;;;;;3.97;2.50;;;13.40;41.40;14.60;101435.00;;;;5074834;28;20189;-46
2022/03/09 06:17:41;;;;;;;2.70;2.50;;;13.40;41.60;14.60;101444.00;;;;5073353;28;20162;-46
2022/03/09 06:20:07;;;;;;;2.90;2.60;;;13.40;41.60;14.60;101433.00;;;;5074855;28;20165;-47
2022/03/09 06:22:33;;;;;;;2.93;2.70;;;13.40;42.20;14.50;101439.00;;;;5074165;28;20631;-46
2022/03/09 06:24:59;;;;;;;3.00;2.70;;;13.40;41.60;14.50;101442.00;;;;5073843;28;20190;-46
2022/03/09 06:27:24;;;;;;;2.70;2.50;;;13.40;41.60;14.50;101443.00;;;;5070202;28;20178;-46
2022/03/09 06:29:50;;;;;;;3.53;2.50;;;13.40;41.70;14.50;101435.00;;;;5073149;28;20553;-45
2022/03/09 06:32:16;;;;;;;3.27;2.60;;;13.40;41.70;14.50;101442.00;;;;5076452;28;20166;-45
2022/03/09 06:34:42;;;;;;;2.70;2.50;;;13.40;41.70;14.50;101428.00;;;;5076784;28;20189;-46
2022/03/09 06:37:07;;;;;;;2.87;2.60;;;13.30;41.60;14.50;101446.00;;;;5073540;28;20169;-45
2022/03/09 06:39:33;;;;;;;3.73;2.50;;;13.30;41.60;14.50;101437.00;;;;5075074;28;20189;-46
2022/03/09 06:41:59;;;;;;;4.03;2.70;;;13.30;41.70;14.50;101435.00;;;;5085906;28;20174;-45
2022/03/09 06:44:24;;;;;;;2.80;2.60;;;13.30;41.60;14.50;101437.00;;;;5073142;28;20209;-46
2022/03/09 06:46:50;;;;;;;2.80;2.50;;;13.30;41.60;14.40;101448.00;;;;5072942;28;20634;-48
2022/03/09 06:49:16;;;;;;;3.50;2.63;;;13.30;41.60;14.40;101452.00;;;;5076391;28;20169;-47
2022/03/09 06:51:41;;;;;;;2.80;2.50;;;13.30;41.60;14.40;101455.00;;;;5077843;28;20169;-46
2022/03/09 06:54:07;;;;;;;2.80;2.40;;;13.30;41.80;14.40;101459.00;;;;5075846;28;20607;-46
2022/03/09 06:56:33;;;;;;;2.90;2.40;;;13.30;41.70;14.40;101464.00;;;;5074929;28;20180;-46
2022/03/09 06:58:58;;;;;;;2.80;2.50;;;13.20;41.60;14.40;101461.00;;;;5075220;28;20296;-46
2022/03/09 07:01:24;;;;;;;2.90;2.50;;;13.30;41.80;14.40;101458.00;;;;5073150;28;20257;-46
2022/03/09 07:03:50;;;;;;;2.50;2.30;;;13.20;41.60;14.40;101468.00;;;;5074140;28;20189;-46
2022/03/09 07:06:15;;;;;;;2.50;2.30;;;13.30;41.80;14.40;101476.00;;;;5077243;28;20176;-45
2022/03/09 07:08:41;;;;;;;2.53;2.33;;;13.20;41.70;14.40;101471.00;;;;5073293;28;20189;-45
2022/03/09 07:11:07;;;;;;;2.50;2.30;;;13.20;41.80;14.30;101473.00;;;;5076321;28;20173;-45
2022/03/09 07:13:33;;;;;;;3.27;2.50;;;13.20;41.90;14.30;101465.00;;;;5075903;28;20158;-45
2022/03/09 07:15:58;;;;;;;2.60;2.40;;;13.20;41.70;14.30;101467.00;;;;5076152;28;20188;-46
2022/03/09 07:18:24;;;;;;;2.50;2.30;;;13.20;41.70;14.30;101476.00;;;;5075644;28;20185;-45
2022/03/09 07:20:50;;;;;;;3.37;2.67;;;13.10;41.60;14.30;101481.00;;;;5074997;28;20166;-46
2022/03/09 07:23:15;;;;;;;2.40;2.20;;;13.20;41.80;14.30;101477.00;;;;5072720;28;20154;-44
2022/03/09 07:25:43;;;;;;;2.40;2.20;;;13.10;41.60;14.30;101479.00;;;;5073805;28;20194;-46
2022/03/09 07:28:08;;;;;;;2.57;2.37;;;13.10;41.70;14.20;101480.00;;;;5074090;28;20245;-45
2022/03/09 07:30:35;;;;;;;2.80;2.50;;;13.20;41.70;14.30;101414.00;;;;5073579;28;20177;-45
2022/03/09 07:33:00;;;;;;;2.50;2.23;;;13.10;41.70;14.30;101496.00;;;;5075208;28;20165;-47
2022/03/09 07:35:26;;;;;;;4.33;2.50;;;13.20;42.20;14.20;101485.00;;;;5075358;28;20193;-47
2022/03/09 07:37:52;;;;;;;2.93;2.60;;;13.20;42.30;14.20;101496.00;;;;5073733;28;20224;-47
2022/03/09 07:40:18;;;;;;;3.03;2.23;;;13.10;42.90;14.10;101496.00;;;;5072816;28;20246;-46
2022/03/09 07:42:44;;;;;;;4.87;2.67;;;13.20;43.20;14.20;101494.00;;;;5072817;28;20170;-46
2022/03/09 07:45:09;;;;;;;3.07;2.27;;;13.40;43.20;14.20;101492.00;;;;5072584;28;20417;-46
2022/03/09 07:47:35;;;;;;;3.60;2.60;;;13.60;43.00;14.30;101470.00;;;;5073391;28;20165;-45
2022/03/09 07:50:02;;;;;;;4.10;2.43;;;13.70;43.00;14.30;101491.00;;;;5072192;28;20170;-46
2022/03/09 07:52:28;;;;;;;2.77;2.57;;;13.80;42.70;14.40;101485.00;;;;5070518;28;20177;-46
2022/03/09 07:54:54;;;;;;;3.43;2.43;;;13.90;42.60;14.50;101493.00;;;;5072409;28;20186;-46
2022/03/09 07:57:20;;;;;;;3.37;2.60;;;14.00;42.60;14.50;101505.00;;;;5072411;28;20231;-46
2022/03/09 07:59:45;;;;;;;2.67;2.27;;;14.00;42.30;14.60;101500.00;;;;5071856;28;20193;-45
2022/03/09 08:02:11;;;;;;;2.80;2.40;;;14.10;42.20;14.60;101494.00;;;;5072714;28;20178;-45
2022/03/09 08:04:37;;;;;;;2.70;2.50;;;14.10;42.10;14.70;101499.00;;;;5072246;28;20186;-46
2022/03/09 08:07:03;;;;;;;2.80;2.50;;;14.20;42.10;14.70;101499.00;;;;5071218;28;20949;-46
2022/03/09 08:09:29;;;;;;;2.63;2.30;;;14.20;42.00;14.60;101502.00;;;;5072603;28;20173;-45
2022/03/09 08:11:54;;;;;;;3.97;2.30;;;14.30;42.00;14.80;101494.00;;;;5072664;28;20173;-46
2022/03/09 08:14:20;;;;;;;3.47;2.37;;;14.30;42.30;14.80;101504.00;;;;5070891;28;20190;-45
2022/03/09 08:16:47;;;;;;;3.87;2.33;;;14.30;42.40;14.90;101504.00;;;;5072257;28;20161;-46
2022/03/09 08:19:12;;;;;;;6.90;2.40;;;14.40;42.50;14.90;101509.00;;;;5083396;28;20262;-46
2022/03/09 08:21:38;;;;;;;5.07;2.30;;;14.50;42.60;15.00;101503.00;;;;5073726;28;20170;-46
2022/03/09 08:24:05;;;;;;;2.57;2.37;;;14.50;42.60;15.00;101510.00;;;;5070040;28;20238;-46
2022/03/09 08:26:31;;;;;;;3.63;2.47;;;14.50;42.60;15.10;101514.00;;;;5072482;28;20157;-46
2022/03/09 08:28:57;;;;;;;3.27;2.30;;;14.50;42.90;15.10;101513.00;;;;5073764;28;20696;-44
2022/03/09 08:31:22;;;;;;;2.30;2.13;;;14.50;43.20;15.10;101517.00;;;;5074501;28;20169;-45
2022/03/09 08:33:48;;;;;;;5.67;2.60;;;14.60;43.10;15.10;101513.00;;;;5071268;28;20196;-46
2022/03/09 08:36:14;;;;;;;4.33;2.50;;;14.60;43.10;15.20;101522.00;;;;5071923;28;20174;-48
2022/03/09 08:38:40;;;;;;;4.00;2.33;;;14.60;43.10;15.20;101512.00;;;;5070473;28;20574;-45
2022/03/09 08:41:05;;;;;;;4.50;2.30;;;14.70;43.20;15.20;101524.00;;;;5072886;28;20247;-45
2022/03/09 08:43:31;;;;;;;3.37;2.30;;;14.70;43.30;15.30;101530.00;;;;5071795;28;20692;-47
2022/03/09 08:45:57;;;;;;;3.47;2.37;;;14.80;43.50;15.30;101533.00;;;;5072633;28;20197;-47
2022/03/09 08:48:26;;;;;;;3.00;2.43;;;14.80;43.50;15.30;101531.00;;;;5072455;28;20170;-45
2022/03/09 08:50:53;;;;;;;4.10;2.30;;;14.90;43.60;15.40;101521.00;;;;5071185;28;20177;-45
2022/03/09 08:53:19;;;;;;;3.73;2.50;;;14.90;43.90;15.40;101533.00;;;;5072158;28;20173;-47
2022/03/09 08:55:45;;;;;;;3.50;2.40;;;14.90;43.80;15.40;101530.00;;;;5072172;28;20185;-46
2022/03/09 08:58:11;;;;;;;2.93;2.60;;;15.00;43.90;15.50;101531.00;;;;5072111;28;20212;-44
2022/03/09 09:00:36;;;;;;;2.80;2.50;;;15.00;43.90;15.50;101538.00;;;;5072645;28;20564;-45
2022/03/09 09:03:02;;;;;;;4.47;2.23;;;15.00;43.90;15.60;101530.00;;;;5071552;28;20667;-46
2022/03/09 09:05:28;;;;;;;4.13;2.10;;;15.00;44.10;15.60;101531.00;;;;5070950;28;20196;-47
2022/03/09 09:07:54;;;;;;;2.70;2.37;;;15.20;44.20;15.60;101537.00;;;;5071585;28;20709;-46
2022/03/09 09:10:19;;;;;;;3.97;2.40;;;15.20;44.30;15.70;101535.00;;;;5072406;28;20188;-46
2022/03/09 09:12:46;;;;;;;4.20;2.60;;;15.30;45.40;15.70;101539.00;;;;5072188;28;20550;-49
2022/03/09 09:15:12;;;;;;;10.00;2.70;;;15.30;46.30;15.80;101535.00;;;;5072913;28;20326;-46
2022/03/09 09:17:37;;;;;;;7.17;3.00;;;15.40;46.80;15.80;101542.00;;;;5071055;28;20210;-45
2022/03/09 09:20:04;;;;;;;8.30;2.80;;;15.40;46.90;15.90;101500.00;;;;5072263;28;20178;-45
2022/03/09 09:22:29;;;;;;;4.77;2.63;;;15.50;46.90;15.90;101529.00;;;;5070394;28;20184;-46
2022/03/09 09:24:55;;;;;;;6.77;2.63;;;15.60;47.30;16.00;101535.00;;;;5071579;28;20194;-45
2022/03/09 09:27:21;;;;;;;5.23;2.63;;;15.60;47.30;16.00;101537.00;;;;5074988;28;20627;-45
2022/03/09 09:29:47;;;;;;;5.33;2.73;;;15.70;47.30;16.10;101536.00;;;;5073332;28;20173;-46
2022/03/09 09:32:14;;;;;;;5.57;2.93;;;15.70;47.10;16.10;101538.00;;;;5073105;28;20181;-46
2022/03/09 09:34:39;;;;;;;4.30;2.67;;;15.80;47.40;16.20;101541.00;;;;5072034;28;20209;-46
2022/03/09 09:37:05;;;;;;;8.10;2.63;;;15.80;47.10;16.20;101528.00;;;;5074271;28;20213;-45
2022/03/09 09:39:31;;;;;;;3.90;2.47;;;15.90;47.40;16.30;101524.00;;;;5075734;28;20239;-46
2022/03/09 09:41:57;;;;;;;3.13;2.57;;;15.90;47.50;16.30;101523.00;;;;5073671;28;20170;-46
2022/03/09 09:44:24;;;;;;;3.37;2.63;;;16.00;47.40;16.40;101522.00;;;;5072047;28;20196;-45
2022/03/09 09:46:50;;;;;;;3.33;2.57;;;16.00;48.10;16.40;101532.00;;;;5076403;28;20184;-47
2022/03/09 09:49:16;;;;;;;6.73;3.00;;;16.10;47.80;16.50;101521.00;;;;5077031;28;20245;-47
2022/03/09 09:51:44;;;;;;;5.27;2.77;;;16.10;47.90;16.50;101526.00;;;;5076750;28;20193;-46
2022/03/09 09:54:13;;;;;;;4.10;2.40;;;16.20;48.00;16.60;101518.00;;;;5076700;28;20189;-48
2022/03/09 09:56:40;;;;;;;3.53;2.87;;;16.20;48.00;16.60;101516.00;;;;5082627;28;20174;-47
2022/03/09 09:59:06;;;;;;;4.43;2.60;;;16.30;48.20;16.60;101516.00;;;;5079851;28;20236;-46
2022/03/09 10:01:32;;;;;;;5.23;2.73;;;16.30;48.10;16.70;101471.00;;;;5076935;28;20178;-47
2022/03/09 10:03:58;;;;;;;3.67;2.60;;;16.30;47.90;16.50;101511.00;;;;5057740;28;20346;-45
2022/03/09 10:06:24;;;;;;;3.63;2.70;;;16.30;48.20;16.70;101511.00;;;;5075311;28;20170;-46
2022/03/09 10:09:09;;;;;;;3.57;2.80;;;16.30;48.30;16.80;101520.00;;;;5076097;28;20681;-46
2022/03/09 10:11:54;;;;;;;4.83;2.70;;;16.40;48.20;16.80;101521.00;;;;5076870;28;20176;-46
2022/03/09 10:14:50;;;;;;;5.77;2.80;;;16.40;47.80;16.90;101515.00;;;;5074955;28;20212;-47
2022/03/09 10:17:34;;;;;;;2.80;2.60;;;16.50;47.70;16.90;101514.00;;;;5076197;28;20170;-46
2022/03/09 10:20:11;;;;;;;2.60;2.40;;;16.40;47.30;16.90;101515.00;;;;5076244;28;20185;-46
2022/03/09 10:22:41;;;;;;;3.73;2.83;;;16.40;47.30;16.90;101510.00;;;;5075021;28;20307;-46
2022/03/09 10:25:09;;;;;;;3.47;2.87;;;16.40;47.30;16.90;101520.00;;;;5076037;28;20228;-46
2022/03/09 10:27:48;;;;;;;3.47;2.70;;;16.40;47.20;16.90;101505.00;;;;5075617;28;20174;-46
2022/03/09 10:30:30;;;;;;;3.10;2.80;;;16.40;46.90;16.90;101510.00;;;;5076290;28;20674;-47
2022/03/09 10:33:00;;;;;;;3.80;2.70;;;16.30;46.70;16.90;101509.00;;;;5059340;28;20173;-47
2022/03/09 10:35:29;;;;;;;3.13;2.67;;;16.40;46.70;16.90;101509.00;;;;5075384;28;20189;-46
2022/03/09 10:37:55;;;;;;;3.33;3.03;;;16.30;46.50;16.90;101516.00;;;;5062059;28;20201;-46
2022/03/09 10:40:21;;;;;;;3.27;2.90;;;16.30;46.40;16.90;101520.00;;;;5055723;28;20265;-45
2022/03/09 10:42:47;;;;;;;3.27;2.90;;;16.30;46.40;16.90;101506.00;;;;5054082;28;20671;-50
2022/03/09 10:45:14;;;;;;;3.20;2.90;;;16.30;46.20;16.90;101503.00;;;;5055136;28;20189;-45